sensor_id;sensor_type;location;lat;lon;timestamp;P1;durP1;ratioP1;P2;durP2;ratioP2
59052;SDS011;44843;44.728;10.396;2023-02-28T00:01:19;15.68;;;7.40;;
59052;SDS011;44843;44.728;10.396;2023-02-28T00:03:45;20.77;;;7.18;;
59052;SDS011;44843;44.728;10.396;2023-02-28T00:06:10;16.20;;;7.03;;
59052;SDS011;44843;44.728;10.396;2023-02-28T00:08:36;11.88;;;7.22;;
59052;SDS011;44843;44.728;10.396;2023-02-28T00:11:09;12.43;;;7.03;;
59052;SDS011;44843;44.728;10.396;2023-02-28T00:13:35;15.15;;;7.68;;
59052;SDS011;44843;44.728;10.396;2023-02-28T00:16:03;12.75;;;7.47;;
59052;SDS011;44843;44.728;10.396;2023-02-28T00:18:28;14.25;;;7.25;;
59052;SDS011;44843;44.728;10.396;2023-02-28T00:20:54;11.70;;;7.35;;
59052;SDS011;44843;44.728;10.396;2023-02-28T00:23:19;16.98;;;7.10;;
59052;SDS011;44843;44.728;10.396;2023-02-28T00:25:44;11.75;;;6.53;;
59052;SDS011;44843;44.728;10.396;2023-02-28T00:28:09;12.35;;;6.55;;
59052;SDS011;44843;44.728;10.396;2023-02-28T00:30:35;13.15;;;6.68;;
59052;SDS011;44843;44.728;10.396;2023-02-28T00:33:00;9.57;;;6.63;;
59052;SDS011;44843;44.728;10.396;2023-02-28T00:35:25;15.32;;;7.65;;
59052;SDS011;44843;44.728;10.396;2023-02-28T00:37:50;11.98;;;7.13;;
59052;SDS011;44843;44.728;10.396;2023-02-28T00:40:16;11.93;;;7.72;;
59052;SDS011;44843;44.728;10.396;2023-02-28T00:42:41;12.73;;;7.70;;
59052;SDS011;44843;44.728;10.396;2023-02-28T00:45:06;14.30;;;7.07;;
59052;SDS011;44843;44.728;10.396;2023-02-28T00:47:33;10.95;;;7.30;;
59052;SDS011;44843;44.728;10.396;2023-02-28T00:49:58;14.38;;;7.03;;
59052;SDS011;44843;44.728;10.396;2023-02-28T00:52:24;14.73;;;7.20;;
59052;SDS011;44843;44.728;10.396;2023-02-28T00:54:49;11.20;;;6.22;;
59052;SDS011;44843;44.728;10.396;2023-02-28T00:57:14;11.23;;;7.05;;
59052;SDS011;44843;44.728;10.396;2023-02-28T00:59:40;15.98;;;7.18;;
59052;SDS011;44843;44.728;10.396;2023-02-28T01:02:05;10.90;;;7.03;;
59052;SDS011;44843;44.728;10.396;2023-02-28T01:04:30;14.68;;;7.35;;
59052;SDS011;44843;44.728;10.396;2023-02-28T01:06:55;12.18;;;6.63;;
59052;SDS011;44843;44.728;10.396;2023-02-28T01:09:20;11.93;;;6.97;;
59052;SDS011;44843;44.728;10.396;2023-02-28T01:11:46;17.17;;;7.88;;
59052;SDS011;44843;44.728;10.396;2023-02-28T01:14:14;11.40;;;7.10;;
59052;SDS011;44843;44.728;10.396;2023-02-28T01:16:40;13.30;;;7.13;;
59052;SDS011;44843;44.728;10.396;2023-02-28T01:19:06;11.95;;;7.15;;
59052;SDS011;44843;44.728;10.396;2023-02-28T01:21:31;12.23;;;7.13;;
59052;SDS011;44843;44.728;10.396;2023-02-28T01:23:56;9.02;;;6.93;;
59052;SDS011;44843;44.728;10.396;2023-02-28T01:26:23;10.13;;;6.32;;
59052;SDS011;44843;44.728;10.396;2023-02-28T01:28:48;11.52;;;7.35;;
59052;SDS011;44843;44.728;10.396;2023-02-28T01:31:14;14.80;;;6.88;;
59052;SDS011;44843;44.728;10.396;2023-02-28T01:33:40;10.93;;;6.65;;
59052;SDS011;44843;44.728;10.396;2023-02-28T01:36:07;16.00;;;6.78;;
59052;SDS011;44843;44.728;10.396;2023-02-28T01:38:33;10.57;;;6.22;;
59052;SDS011;44843;44.728;10.396;2023-02-28T01:40:58;10.93;;;6.68;;
59052;SDS011;44843;44.728;10.396;2023-02-28T01:43:25;15.25;;;7.10;;
59052;SDS011;44843;44.728;10.396;2023-02-28T01:45:51;15.75;;;7.28;;
59052;SDS011;44843;44.728;10.396;2023-02-28T01:48:16;12.23;;;6.93;;
59052;SDS011;44843;44.728;10.396;2023-02-28T01:50:43;12.93;;;6.85;;
59052;SDS011;44843;44.728;10.396;2023-02-28T01:53:10;15.57;;;7.18;;
59052;SDS011;44843;44.728;10.396;2023-02-28T01:55:36;15.40;;;7.15;;
59052;SDS011;44843;44.728;10.396;2023-02-28T01:58:03;9.70;;;6.55;;
59052;SDS011;44843;44.728;10.396;2023-02-28T02:00:29;12.32;;;6.63;;
59052;SDS011;44843;44.728;10.396;2023-02-28T02:02:57;15.80;;;7.57;;
59052;SDS011;44843;44.728;10.396;2023-02-28T02:05:26;10.50;;;6.40;;
59052;SDS011;44843;44.728;10.396;2023-02-28T02:07:56;13.75;;;6.72;;
59052;SDS011;44843;44.728;10.396;2023-02-28T02:16:18;11.90;;;6.47;;
59052;SDS011;44843;44.728;10.396;2023-02-28T02:18:37;9.95;;;5.72;;
59052;SDS011;44843;44.728;10.396;2023-02-28T02:21:31;10.90;;;5.75;;
59052;SDS011;44843;44.728;10.396;2023-02-28T02:23:54;15.00;;;6.72;;
59052;SDS011;44843;44.728;10.396;2023-02-28T02:31:30;13.63;;;7.05;;
59052;SDS011;44843;44.728;10.396;2023-02-28T02:36:43;15.85;;;6.88;;
59052;SDS011;44843;44.728;10.396;2023-02-28T02:39:19;10.52;;;6.43;;
59052;SDS011;44843;44.728;10.396;2023-02-28T02:44:15;18.25;;;6.63;;
59052;SDS011;44843;44.728;10.396;2023-02-28T02:46:43;20.33;;;6.88;;
59052;SDS011;44843;44.728;10.396;2023-02-28T02:49:12;12.57;;;6.60;;
59052;SDS011;44843;44.728;10.396;2023-02-28T02:51:38;12.00;;;6.88;;
59052;SDS011;44843;44.728;10.396;2023-02-28T02:54:08;12.90;;;6.97;;
59052;SDS011;44843;44.728;10.396;2023-02-28T02:56:33;11.32;;;6.82;;
59052;SDS011;44843;44.728;10.396;2023-02-28T02:59:01;14.63;;;6.88;;
59052;SDS011;44843;44.728;10.396;2023-02-28T03:01:27;13.55;;;7.43;;
59052;SDS011;44843;44.728;10.396;2023-02-28T03:03:58;13.88;;;6.78;;
59052;SDS011;44843;44.728;10.396;2023-02-28T03:06:24;12.25;;;6.85;;
59052;SDS011;44843;44.728;10.396;2023-02-28T03:08:50;10.80;;;6.63;;
59052;SDS011;44843;44.728;10.396;2023-02-28T03:11:15;12.82;;;6.70;;
59052;SDS011;44843;44.728;10.396;2023-02-28T03:18:50;11.30;;;6.60;;
59052;SDS011;44843;44.728;10.396;2023-02-28T03:21:27;11.35;;;6.53;;
59052;SDS011;44843;44.728;10.396;2023-02-28T03:26:19;12.60;;;6.70;;
59052;SDS011;44843;44.728;10.396;2023-02-28T03:36:25;11.95;;;7.13;;
59052;SDS011;44843;44.728;10.396;2023-02-28T03:38:53;8.82;;;6.30;;
59052;SDS011;44843;44.728;10.396;2023-02-28T03:41:21;11.73;;;7.00;;
59052;SDS011;44843;44.728;10.396;2023-02-28T03:43:53;10.50;;;6.13;;
59052;SDS011;44843;44.728;10.396;2023-02-28T03:46:21;14.00;;;6.50;;
59052;SDS011;44843;44.728;10.396;2023-02-28T03:48:58;9.80;;;6.32;;
59052;SDS011;44843;44.728;10.396;2023-02-28T03:51:27;14.80;;;6.88;;
59052;SDS011;44843;44.728;10.396;2023-02-28T03:53:54;13.90;;;6.38;;
59052;SDS011;44843;44.728;10.396;2023-02-28T03:56:27;8.07;;;6.07;;
59052;SDS011;44843;44.728;10.396;2023-02-28T04:01:32;7.97;;;5.93;;
59052;SDS011;44843;44.728;10.396;2023-02-28T04:03:58;10.07;;;6.47;;
59052;SDS011;44843;44.728;10.396;2023-02-28T04:06:23;9.93;;;6.97;;
59052;SDS011;44843;44.728;10.396;2023-02-28T04:08:49;12.93;;;6.85;;
59052;SDS011;44843;44.728;10.396;2023-02-28T04:13:39;10.68;;;6.32;;
59052;SDS011;44843;44.728;10.396;2023-02-28T04:16:07;10.15;;;6.30;;
59052;SDS011;44843;44.728;10.396;2023-02-28T04:18:39;12.68;;;6.82;;
59052;SDS011;44843;44.728;10.396;2023-02-28T04:21:05;10.30;;;6.53;;
59052;SDS011;44843;44.728;10.396;2023-02-28T04:23:31;10.07;;;7.13;;
59052;SDS011;44843;44.728;10.396;2023-02-28T04:25:56;10.38;;;6.43;;
59052;SDS011;44843;44.728;10.396;2023-02-28T04:28:21;13.80;;;7.40;;
59052;SDS011;44843;44.728;10.396;2023-02-28T04:30:47;10.40;;;6.30;;
59052;SDS011;44843;44.728;10.396;2023-02-28T04:33:12;10.43;;;6.78;;
59052;SDS011;44843;44.728;10.396;2023-02-28T04:35:37;11.95;;;6.78;;
59052;SDS011;44843;44.728;10.396;2023-02-28T04:38:02;11.25;;;6.65;;
59052;SDS011;44843;44.728;10.396;2023-02-28T04:40:28;9.82;;;6.63;;
59052;SDS011;44843;44.728;10.396;2023-02-28T04:42:53;10.75;;;6.32;;
59052;SDS011;44843;44.728;10.396;2023-02-28T04:45:18;8.88;;;6.40;;
59052;SDS011;44843;44.728;10.396;2023-02-28T04:47:44;11.80;;;7.25;;
59052;SDS011;44843;44.728;10.396;2023-02-28T04:50:09;14.63;;;6.78;;
59052;SDS011;44843;44.728;10.396;2023-02-28T04:52:35;10.02;;;6.65;;
59052;SDS011;44843;44.728;10.396;2023-02-28T04:55:00;12.10;;;6.63;;
59052;SDS011;44843;44.728;10.396;2023-02-28T04:57:25;10.30;;;6.85;;
59052;SDS011;44843;44.728;10.396;2023-02-28T04:59:50;10.70;;;6.70;;
59052;SDS011;44843;44.728;10.396;2023-02-28T05:02:16;14.73;;;7.13;;
59052;SDS011;44843;44.728;10.396;2023-02-28T05:04:41;10.95;;;6.40;;
59052;SDS011;44843;44.728;10.396;2023-02-28T05:07:06;9.43;;;6.38;;
59052;SDS011;44843;44.728;10.396;2023-02-28T05:09:31;11.57;;;6.70;;
59052;SDS011;44843;44.728;10.396;2023-02-28T05:11:58;8.93;;;6.28;;
59052;SDS011;44843;44.728;10.396;2023-02-28T05:14:23;8.07;;;6.10;;
59052;SDS011;44843;44.728;10.396;2023-02-28T05:16:48;12.10;;;6.85;;
59052;SDS011;44843;44.728;10.396;2023-02-28T05:19:13;12.38;;;6.70;;
59052;SDS011;44843;44.728;10.396;2023-02-28T05:21:48;11.32;;;6.55;;
59052;SDS011;44843;44.728;10.396;2023-02-28T05:24:14;12.63;;;5.82;;
59052;SDS011;44843;44.728;10.396;2023-02-28T05:26:40;10.00;;;6.47;;
59052;SDS011;44843;44.728;10.396;2023-02-28T05:29:06;11.02;;;6.25;;
59052;SDS011;44843;44.728;10.396;2023-02-28T05:31:31;11.13;;;6.88;;
59052;SDS011;44843;44.728;10.396;2023-02-28T05:33:56;14.23;;;7.20;;
59052;SDS011;44843;44.728;10.396;2023-02-28T05:36:22;10.68;;;6.45;;
59052;SDS011;44843;44.728;10.396;2023-02-28T05:38:47;10.90;;;6.93;;
59052;SDS011;44843;44.728;10.396;2023-02-28T05:41:13;10.48;;;6.60;;
59052;SDS011;44843;44.728;10.396;2023-02-28T05:43:38;8.95;;;6.35;;
59052;SDS011;44843;44.728;10.396;2023-02-28T05:46:08;9.60;;;6.70;;
59052;SDS011;44843;44.728;10.396;2023-02-28T05:48:34;8.95;;;6.00;;
59052;SDS011;44843;44.728;10.396;2023-02-28T05:51:00;9.25;;;6.05;;
59052;SDS011;44843;44.728;10.396;2023-02-28T05:53:25;12.02;;;6.80;;
59052;SDS011;44843;44.728;10.396;2023-02-28T05:55:51;7.72;;;6.00;;
59052;SDS011;44843;44.728;10.396;2023-02-28T05:58:16;10.43;;;6.68;;
59052;SDS011;44843;44.728;10.396;2023-02-28T06:00:41;12.75;;;6.85;;
59052;SDS011;44843;44.728;10.396;2023-02-28T06:03:07;10.70;;;6.82;;
59052;SDS011;44843;44.728;10.396;2023-02-28T06:05:32;11.82;;;7.07;;
59052;SDS011;44843;44.728;10.396;2023-02-28T06:07:58;12.27;;;7.20;;
59052;SDS011;44843;44.728;10.396;2023-02-28T06:10:23;13.35;;;6.75;;
59052;SDS011;44843;44.728;10.396;2023-02-28T06:12:48;10.23;;;7.30;;
59052;SDS011;44843;44.728;10.396;2023-02-28T06:15:14;14.38;;;7.30;;
59052;SDS011;44843;44.728;10.396;2023-02-28T06:17:40;12.57;;;6.70;;
59052;SDS011;44843;44.728;10.396;2023-02-28T06:20:06;11.20;;;6.72;;
59052;SDS011;44843;44.728;10.396;2023-02-28T06:22:32;12.43;;;7.07;;
59052;SDS011;44843;44.728;10.396;2023-02-28T06:24:57;8.43;;;5.78;;
59052;SDS011;44843;44.728;10.396;2023-02-28T06:27:22;17.58;;;7.00;;
59052;SDS011;44843;44.728;10.396;2023-02-28T06:29:48;15.10;;;8.20;;
59052;SDS011;44843;44.728;10.396;2023-02-28T06:32:13;14.43;;;9.00;;
59052;SDS011;44843;44.728;10.396;2023-02-28T06:34:38;17.58;;;9.85;;
59052;SDS011;44843;44.728;10.396;2023-02-28T06:37:03;14.90;;;9.05;;
59052;SDS011;44843;44.728;10.396;2023-02-28T06:39:29;13.13;;;7.93;;
59052;SDS011;44843;44.728;10.396;2023-02-28T06:41:54;14.80;;;7.43;;
59052;SDS011;44843;44.728;10.396;2023-02-28T06:44:20;16.23;;;8.95;;
59052;SDS011;44843;44.728;10.396;2023-02-28T06:46:45;16.67;;;8.88;;
59052;SDS011;44843;44.728;10.396;2023-02-28T06:49:11;13.60;;;8.35;;
59052;SDS011;44843;44.728;10.396;2023-02-28T06:51:38;11.57;;;8.05;;
59052;SDS011;44843;44.728;10.396;2023-02-28T06:54:04;20.40;;;11.02;;
59052;SDS011;44843;44.728;10.396;2023-02-28T06:56:29;14.52;;;7.85;;
59052;SDS011;44843;44.728;10.396;2023-02-28T06:58:54;14.82;;;9.63;;
59052;SDS011;44843;44.728;10.396;2023-02-28T07:01:21;20.45;;;12.77;;
59052;SDS011;44843;44.728;10.396;2023-02-28T07:03:48;18.90;;;10.52;;
59052;SDS011;44843;44.728;10.396;2023-02-28T07:06:17;16.63;;;10.73;;
59052;SDS011;44843;44.728;10.396;2023-02-28T07:08:42;22.55;;;13.48;;
59052;SDS011;44843;44.728;10.396;2023-02-28T07:11:08;17.02;;;7.97;;
59052;SDS011;44843;44.728;10.396;2023-02-28T07:13:33;15.27;;;8.00;;
59052;SDS011;44843;44.728;10.396;2023-02-28T07:16:02;11.80;;;7.40;;
59052;SDS011;44843;44.728;10.396;2023-02-28T07:18:28;11.65;;;6.70;;
59052;SDS011;44843;44.728;10.396;2023-02-28T07:20:54;11.85;;;7.22;;
59052;SDS011;44843;44.728;10.396;2023-02-28T07:23:19;15.30;;;7.90;;
59052;SDS011;44843;44.728;10.396;2023-02-28T07:25:45;12.20;;;7.88;;
59052;SDS011;44843;44.728;10.396;2023-02-28T07:28:10;12.55;;;7.15;;
59052;SDS011;44843;44.728;10.396;2023-02-28T07:30:36;11.27;;;7.47;;
59052;SDS011;44843;44.728;10.396;2023-02-28T07:33:01;12.13;;;7.85;;
59052;SDS011;44843;44.728;10.396;2023-02-28T07:35:26;11.38;;;7.75;;
59052;SDS011;44843;44.728;10.396;2023-02-28T07:37:51;12.82;;;8.07;;
59052;SDS011;44843;44.728;10.396;2023-02-28T07:40:17;14.80;;;8.35;;
59052;SDS011;44843;44.728;10.396;2023-02-28T07:42:42;16.95;;;8.57;;
59052;SDS011;44843;44.728;10.396;2023-02-28T07:45:08;14.43;;;8.45;;
59052;SDS011;44843;44.728;10.396;2023-02-28T07:47:36;14.88;;;7.97;;
59052;SDS011;44843;44.728;10.396;2023-02-28T07:50:01;15.02;;;8.77;;
59052;SDS011;44843;44.728;10.396;2023-02-28T07:52:26;14.57;;;8.70;;
59052;SDS011;44843;44.728;10.396;2023-02-28T07:54:52;19.25;;;8.70;;
59052;SDS011;44843;44.728;10.396;2023-02-28T07:57:17;15.20;;;8.63;;
59052;SDS011;44843;44.728;10.396;2023-02-28T07:59:42;13.48;;;8.13;;
59052;SDS011;44843;44.728;10.396;2023-02-28T08:02:14;13.27;;;8.77;;
59052;SDS011;44843;44.728;10.396;2023-02-28T08:04:40;13.15;;;8.73;;
59052;SDS011;44843;44.728;10.396;2023-02-28T08:07:05;13.93;;;8.98;;
59052;SDS011;44843;44.728;10.396;2023-02-28T08:09:30;17.27;;;8.50;;
59052;SDS011;44843;44.728;10.396;2023-02-28T08:11:56;13.13;;;8.23;;
59052;SDS011;44843;44.728;10.396;2023-02-28T08:14:21;13.50;;;8.55;;
59052;SDS011;44843;44.728;10.396;2023-02-28T08:16:47;16.77;;;9.95;;
59052;SDS011;44843;44.728;10.396;2023-02-28T08:19:12;16.73;;;9.65;;
59052;SDS011;44843;44.728;10.396;2023-02-28T08:21:37;13.57;;;8.63;;
59052;SDS011;44843;44.728;10.396;2023-02-28T08:24:02;16.83;;;9.43;;
59052;SDS011;44843;44.728;10.396;2023-02-28T08:26:27;14.13;;;9.13;;
59052;SDS011;44843;44.728;10.396;2023-02-28T08:28:53;17.50;;;9.25;;
59052;SDS011;44843;44.728;10.396;2023-02-28T08:31:18;16.33;;;9.50;;
59052;SDS011;44843;44.728;10.396;2023-02-28T08:33:44;14.90;;;9.05;;
59052;SDS011;44843;44.728;10.396;2023-02-28T08:36:10;14.05;;;8.25;;
59052;SDS011;44843;44.728;10.396;2023-02-28T08:38:35;16.58;;;10.13;;
59052;SDS011;44843;44.728;10.396;2023-02-28T08:41:02;15.70;;;8.88;;
59052;SDS011;44843;44.728;10.396;2023-02-28T08:43:30;12.90;;;9.05;;
59052;SDS011;44843;44.728;10.396;2023-02-28T08:45:56;16.13;;;8.95;;
59052;SDS011;44843;44.728;10.396;2023-02-28T08:48:24;16.95;;;9.50;;
59052;SDS011;44843;44.728;10.396;2023-02-28T08:50:56;12.98;;;9.07;;
59052;SDS011;44843;44.728;10.396;2023-02-28T08:53:21;15.43;;;8.73;;
59052;SDS011;44843;44.728;10.396;2023-02-28T08:55:47;16.90;;;8.95;;
59052;SDS011;44843;44.728;10.396;2023-02-28T08:58:12;16.83;;;9.25;;
59052;SDS011;44843;44.728;10.396;2023-02-28T09:00:37;14.93;;;8.88;;
59052;SDS011;44843;44.728;10.396;2023-02-28T09:03:02;16.27;;;9.68;;
59052;SDS011;44843;44.728;10.396;2023-02-28T09:05:28;15.73;;;9.13;;
59052;SDS011;44843;44.728;10.396;2023-02-28T09:07:54;13.35;;;8.43;;
59052;SDS011;44843;44.728;10.396;2023-02-28T09:10:20;22.10;;;8.95;;
59052;SDS011;44843;44.728;10.396;2023-02-28T09:12:45;15.02;;;9.50;;
59052;SDS011;44843;44.728;10.396;2023-02-28T09:15:11;17.30;;;9.52;;
59052;SDS011;44843;44.728;10.396;2023-02-28T09:17:37;16.45;;;8.90;;
59052;SDS011;44843;44.728;10.396;2023-02-28T09:20:02;13.40;;;8.43;;
59052;SDS011;44843;44.728;10.396;2023-02-28T09:22:27;13.70;;;8.20;;
59052;SDS011;44843;44.728;10.396;2023-02-28T09:24:53;17.95;;;8.32;;
59052;SDS011;44843;44.728;10.396;2023-02-28T09:27:18;13.80;;;8.93;;
59052;SDS011;44843;44.728;10.396;2023-02-28T09:29:43;15.63;;;8.98;;
59052;SDS011;44843;44.728;10.396;2023-02-28T09:32:08;16.55;;;8.70;;
59052;SDS011;44843;44.728;10.396;2023-02-28T09:34:34;17.85;;;9.38;;
59052;SDS011;44843;44.728;10.396;2023-02-28T09:36:59;19.25;;;9.75;;
59052;SDS011;44843;44.728;10.396;2023-02-28T09:39:24;15.10;;;8.68;;
59052;SDS011;44843;44.728;10.396;2023-02-28T09:41:51;14.60;;;7.82;;
59052;SDS011;44843;44.728;10.396;2023-02-28T09:46:50;21.98;;;8.95;;
59052;SDS011;44843;44.728;10.396;2023-02-28T09:49:18;13.80;;;8.55;;
59052;SDS011;44843;44.728;10.396;2023-02-28T09:54:20;15.50;;;8.57;;
59052;SDS011;44843;44.728;10.396;2023-02-28T09:56:58;13.35;;;8.25;;
59052;SDS011;44843;44.728;10.396;2023-02-28T10:06:58;14.38;;;8.75;;
59052;SDS011;44843;44.728;10.396;2023-02-28T10:09:27;13.65;;;9.43;;
59052;SDS011;44843;44.728;10.396;2023-02-28T10:11:56;13.95;;;10.43;;
59052;SDS011;44843;44.728;10.396;2023-02-28T10:14:23;13.68;;;8.88;;
59052;SDS011;44843;44.728;10.396;2023-02-28T10:16:50;11.63;;;7.78;;
59052;SDS011;44843;44.728;10.396;2023-02-28T10:26:56;13.35;;;8.77;;
59052;SDS011;44843;44.728;10.396;2023-02-28T10:29:22;11.93;;;8.27;;
59052;SDS011;44843;44.728;10.396;2023-02-28T10:31:47;13.73;;;8.02;;
59052;SDS011;44843;44.728;10.396;2023-02-28T10:34:12;15.63;;;8.32;;
59052;SDS011;44843;44.728;10.396;2023-02-28T10:36:38;14.32;;;7.75;;
59052;SDS011;44843;44.728;10.396;2023-02-28T10:39:32;18.83;;;8.90;;
59052;SDS011;44843;44.728;10.396;2023-02-28T10:41:48;12.30;;;8.13;;
59052;SDS011;44843;44.728;10.396;2023-02-28T10:44:20;16.42;;;9.27;;
59052;SDS011;44843;44.728;10.396;2023-02-28T10:46:45;15.50;;;8.98;;
59052;SDS011;44843;44.728;10.396;2023-02-28T10:49:17;20.00;;;10.23;;
59052;SDS011;44843;44.728;10.396;2023-02-28T10:51:43;12.43;;;8.43;;
59052;SDS011;44843;44.728;10.396;2023-02-28T10:54:16;16.42;;;8.93;;
59052;SDS011;44843;44.728;10.396;2023-02-28T10:56:41;12.93;;;8.18;;
59052;SDS011;44843;44.728;10.396;2023-02-28T11:01:51;15.25;;;9.20;;
59052;SDS011;44843;44.728;10.396;2023-02-28T11:07:39;15.70;;;8.55;;
59052;SDS011;44843;44.728;10.396;2023-02-28T11:09:46;14.45;;;7.65;;
59052;SDS011;44843;44.728;10.396;2023-02-28T11:12:20;12.02;;;8.55;;
59052;SDS011;44843;44.728;10.396;2023-02-28T11:15:00;20.23;;;9.15;;
59052;SDS011;44843;44.728;10.396;2023-02-28T11:17:27;13.95;;;8.30;;
59052;SDS011;44843;44.728;10.396;2023-02-28T11:19:54;15.70;;;8.63;;
59052;SDS011;44843;44.728;10.396;2023-02-28T11:22:24;13.65;;;8.40;;
59052;SDS011;44843;44.728;10.396;2023-02-28T11:24:53;17.30;;;9.00;;
59052;SDS011;44843;44.728;10.396;2023-02-28T11:29:51;15.07;;;8.65;;
59052;SDS011;44843;44.728;10.396;2023-02-28T11:32:20;20.50;;;9.35;;
59052;SDS011;44843;44.728;10.396;2023-02-28T11:34:46;15.73;;;8.70;;
59052;SDS011;44843;44.728;10.396;2023-02-28T11:37:16;15.20;;;8.30;;
59052;SDS011;44843;44.728;10.396;2023-02-28T11:39:42;21.30;;;9.80;;
59052;SDS011;44843;44.728;10.396;2023-02-28T11:44:54;15.07;;;9.20;;
59052;SDS011;44843;44.728;10.396;2023-02-28T11:47:32;16.10;;;8.82;;
59052;SDS011;44843;44.728;10.396;2023-02-28T12:02:56;18.35;;;8.40;;
59052;SDS011;44843;44.728;10.396;2023-02-28T12:15:29;14.30;;;8.43;;
59052;SDS011;44843;44.728;10.396;2023-02-28T12:20:34;13.85;;;9.18;;
59052;SDS011;44843;44.728;10.396;2023-02-28T12:25:50;14.63;;;8.63;;
59052;SDS011;44843;44.728;10.396;2023-02-28T12:28:20;14.57;;;8.95;;
59052;SDS011;44843;44.728;10.396;2023-02-28T12:30:49;16.45;;;9.40;;
59052;SDS011;44843;44.728;10.396;2023-02-28T12:33:17;17.35;;;8.95;;
59052;SDS011;44843;44.728;10.396;2023-02-28T12:35:49;15.00;;;9.52;;
59052;SDS011;44843;44.728;10.396;2023-02-28T12:38:20;10.82;;;8.38;;
59052;SDS011;44843;44.728;10.396;2023-02-28T12:40:50;13.65;;;8.95;;
59052;SDS011;44843;44.728;10.396;2023-02-28T12:43:17;12.88;;;8.75;;
59052;SDS011;44843;44.728;10.396;2023-02-28T12:48:10;14.60;;;9.40;;
59052;SDS011;44843;44.728;10.396;2023-02-28T12:50:38;18.27;;;9.40;;
59052;SDS011;44843;44.728;10.396;2023-02-28T13:01:08;15.77;;;9.20;;
59052;SDS011;44843;44.728;10.396;2023-02-28T13:11:30;17.23;;;10.20;;
59052;SDS011;44843;44.728;10.396;2023-02-28T13:13:59;19.45;;;10.15;;
59052;SDS011;44843;44.728;10.396;2023-02-28T13:16:25;17.42;;;11.00;;
59052;SDS011;44843;44.728;10.396;2023-02-28T13:18:51;15.55;;;10.40;;
59052;SDS011;44843;44.728;10.396;2023-02-28T13:21:28;17.40;;;10.25;;
59052;SDS011;44843;44.728;10.396;2023-02-28T13:34:19;15.40;;;9.23;;
59052;SDS011;44843;44.728;10.396;2023-02-28T13:36:45;16.98;;;10.25;;
59052;SDS011;44843;44.728;10.396;2023-02-28T13:41:54;21.05;;;10.98;;
59052;SDS011;44843;44.728;10.396;2023-02-28T13:44:20;14.93;;;9.77;;
59052;SDS011;44843;44.728;10.396;2023-02-28T13:57:24;13.48;;;9.60;;
59052;SDS011;44843;44.728;10.396;2023-02-28T14:00:07;17.23;;;10.40;;
59052;SDS011;44843;44.728;10.396;2023-02-28T14:05:13;13.20;;;9.90;;
59052;SDS011;44843;44.728;10.396;2023-02-28T14:07:47;16.40;;;10.82;;
59052;SDS011;44843;44.728;10.396;2023-02-28T14:10:21;17.90;;;10.90;;
59052;SDS011;44843;44.728;10.396;2023-02-28T14:15:38;15.68;;;10.25;;
59052;SDS011;44843;44.728;10.396;2023-02-28T14:20:52;16.42;;;10.52;;
59052;SDS011;44843;44.728;10.396;2023-02-28T14:23:23;15.95;;;9.70;;
59052;SDS011;44843;44.728;10.396;2023-02-28T14:26:02;16.67;;;10.27;;
59052;SDS011;44843;44.728;10.396;2023-02-28T14:31:07;18.27;;;11.85;;
59052;SDS011;44843;44.728;10.396;2023-02-28T14:36:22;19.52;;;10.90;;
59052;SDS011;44843;44.728;10.396;2023-02-28T14:38:56;19.55;;;11.00;;
59052;SDS011;44843;44.728;10.396;2023-02-28T14:41:24;16.73;;;10.73;;
59052;SDS011;44843;44.728;10.396;2023-02-28T14:43:54;17.55;;;10.98;;
59052;SDS011;44843;44.728;10.396;2023-02-28T14:46:20;19.48;;;11.32;;
59052;SDS011;44843;44.728;10.396;2023-02-28T14:48:49;18.60;;;11.02;;
59052;SDS011;44843;44.728;10.396;2023-02-28T14:51:18;16.88;;;10.95;;
59052;SDS011;44843;44.728;10.396;2023-02-28T14:53:44;18.75;;;12.02;;
59052;SDS011;44843;44.728;10.396;2023-02-28T14:56:22;17.02;;;10.40;;
59052;SDS011;44843;44.728;10.396;2023-02-28T14:58:52;17.88;;;11.98;;
59052;SDS011;44843;44.728;10.396;2023-02-28T15:01:19;17.88;;;11.27;;
59052;SDS011;44843;44.728;10.396;2023-02-28T15:03:44;15.45;;;10.50;;
59052;SDS011;44843;44.728;10.396;2023-02-28T15:06:16;17.35;;;10.68;;
59052;SDS011;44843;44.728;10.396;2023-02-28T15:08:43;17.27;;;11.75;;
59052;SDS011;44843;44.728;10.396;2023-02-28T15:11:11;16.92;;;11.25;;
59052;SDS011;44843;44.728;10.396;2023-02-28T15:13:42;18.63;;;11.48;;
59052;SDS011;44843;44.728;10.396;2023-02-28T15:16:12;21.10;;;11.45;;
59052;SDS011;44843;44.728;10.396;2023-02-28T15:21:07;15.55;;;10.60;;
59052;SDS011;44843;44.728;10.396;2023-02-28T15:23:36;18.25;;;12.23;;
59052;SDS011;44843;44.728;10.396;2023-02-28T15:26:02;20.25;;;12.02;;
59052;SDS011;44843;44.728;10.396;2023-02-28T15:28:27;24.13;;;14.45;;
59052;SDS011;44843;44.728;10.396;2023-02-28T15:30:55;29.05;;;15.63;;
59052;SDS011;44843;44.728;10.396;2023-02-28T15:33:21;31.40;;;14.90;;
59052;SDS011;44843;44.728;10.396;2023-02-28T15:35:47;21.80;;;12.85;;
59052;SDS011;44843;44.728;10.396;2023-02-28T15:38:14;29.63;;;14.45;;
59052;SDS011;44843;44.728;10.396;2023-02-28T15:40:41;33.22;;;14.27;;
59052;SDS011;44843;44.728;10.396;2023-02-28T15:43:12;22.88;;;13.80;;
59052;SDS011;44843;44.728;10.396;2023-02-28T15:48:14;23.00;;;11.60;;
59052;SDS011;44843;44.728;10.396;2023-02-28T15:50:40;18.15;;;11.75;;
59052;SDS011;44843;44.728;10.396;2023-02-28T15:53:10;18.00;;;11.73;;
59052;SDS011;44843;44.728;10.396;2023-02-28T15:55:37;17.00;;;11.75;;
59052;SDS011;44843;44.728;10.396;2023-02-28T15:58:03;17.65;;;11.10;;
59052;SDS011;44843;44.728;10.396;2023-02-28T16:00:30;23.70;;;12.20;;
59052;SDS011;44843;44.728;10.396;2023-02-28T16:02:57;20.23;;;11.98;;
59052;SDS011;44843;44.728;10.396;2023-02-28T16:05:24;19.40;;;11.82;;
59052;SDS011;44843;44.728;10.396;2023-02-28T16:07:53;22.08;;;12.60;;
59052;SDS011;44843;44.728;10.396;2023-02-28T16:10:19;17.33;;;10.80;;
59052;SDS011;44843;44.728;10.396;2023-02-28T16:12:44;21.45;;;12.27;;
59052;SDS011;44843;44.728;10.396;2023-02-28T16:18:07;20.98;;;11.48;;
59052;SDS011;44843;44.728;10.396;2023-02-28T16:20:33;18.92;;;11.85;;
59052;SDS011;44843;44.728;10.396;2023-02-28T16:22:58;20.00;;;13.00;;
59052;SDS011;44843;44.728;10.396;2023-02-28T16:25:33;19.33;;;11.43;;
59052;SDS011;44843;44.728;10.396;2023-02-28T16:27:59;20.90;;;11.57;;
59052;SDS011;44843;44.728;10.396;2023-02-28T16:30:26;23.63;;;12.52;;
59052;SDS011;44843;44.728;10.396;2023-02-28T16:32:52;19.35;;;13.98;;
59052;SDS011;44843;44.728;10.396;2023-02-28T16:35:19;22.58;;;14.27;;
59052;SDS011;44843;44.728;10.396;2023-02-28T16:37:44;23.92;;;14.27;;
59052;SDS011;44843;44.728;10.396;2023-02-28T16:40:14;23.52;;;13.63;;
59052;SDS011;44843;44.728;10.396;2023-02-28T16:42:40;20.77;;;12.65;;
59052;SDS011;44843;44.728;10.396;2023-02-28T16:45:05;23.98;;;12.52;;
59052;SDS011;44843;44.728;10.396;2023-02-28T16:47:31;25.10;;;14.00;;
59052;SDS011;44843;44.728;10.396;2023-02-28T16:49:57;24.63;;;12.90;;
59052;SDS011;44843;44.728;10.396;2023-02-28T16:52:23;25.60;;;13.73;;
59052;SDS011;44843;44.728;10.396;2023-02-28T16:54:48;21.83;;;13.02;;
59052;SDS011;44843;44.728;10.396;2023-02-28T16:57:22;20.67;;;11.77;;